createdAt,value
2023-02-11T00:01:33.075Z,76.68
2023-02-11T00:06:35.768Z,77.10
2023-02-11T00:11:37.271Z,77.45
2023-02-11T00:16:38.855Z,77.27
2023-02-11T00:21:40.380Z,77.24
2023-02-11T00:26:41.794Z,77.06
2023-02-11T00:31:43.672Z,77.12
2023-02-11T00:36:45.190Z,76.36
2023-02-11T00:41:46.621Z,76.71
2023-02-11T00:46:48.152Z,77.13
2023-02-11T00:51:49.595Z,77.62
2023-02-11T00:56:51.013Z,76.67
2023-02-11T01:01:52.596Z,77.53
2023-02-11T01:06:54.608Z,76.67
2023-02-11T01:11:56.037Z,77.03
2023-02-11T01:16:57.456Z,76.66
2023-02-11T01:21:58.999Z,76.80
2023-02-11T01:27:00.469Z,76.77
2023-02-11T01:32:01.975Z,76.77
2023-02-11T01:37:03.433Z,76.00
2023-02-11T01:42:05.214Z,76.15
2023-02-11T01:47:06.705Z,75.21
2023-02-11T01:52:40.951Z,75.75
2023-02-11T01:57:47.405Z,75.64
2023-02-11T02:02:58.254Z,75.43
2023-02-11T02:08:13.623Z,74.93
2023-02-11T02:13:15.628Z,75.58
2023-02-11T02:18:48.843Z,75.24
2023-02-11T02:24:15.142Z,75.15
2023-02-11T02:29:56.506Z,75.35
2023-02-11T02:35:33.326Z,74.24
2023-02-11T02:40:41.137Z,75.33
2023-02-11T02:45:42.757Z,74.45
2023-02-11T02:50:44.645Z,74.17
2023-02-11T02:56:08.535Z,74.33
2023-02-11T03:01:34.770Z,73.85
2023-02-11T03:06:45.784Z,73.58
2023-02-11T03:11:47.243Z,74.28
2023-02-11T03:16:50.132Z,74.83
2023-02-11T03:21:53.474Z,74.69
2023-02-11T03:26:57.883Z,75.17
2023-02-11T03:32:22.234Z,75.09
2023-02-11T03:37:30.677Z,74.50
2023-02-11T03:42:34.860Z,75.27
2023-02-11T03:47:39.964Z,76.05
2023-02-11T03:52:42.380Z,74.75
2023-02-11T03:57:44.260Z,75.71
2023-02-11T04:02:45.816Z,75.55
2023-02-11T04:07:47.273Z,75.46
2023-02-11T04:12:48.947Z,75.07
2023-02-11T04:17:50.559Z,74.39
2023-02-11T04:22:51.996Z,75.31
2023-02-11T04:27:53.470Z,75.44
2023-02-11T04:32:54.963Z,75.79
2023-02-11T04:37:56.437Z,76.08
2023-02-11T04:42:57.887Z,75.78
2023-02-11T04:47:59.338Z,75.76
2023-02-11T04:53:01.766Z,76.37
2023-02-11T04:58:03.248Z,76.37
2023-02-11T05:03:04.710Z,76.97
2023-02-11T05:08:07.019Z,77.18
2023-02-11T05:13:08.455Z,77.20
2023-02-11T05:18:10.006Z,77.37
2023-02-11T05:23:12.245Z,76.62
2023-02-11T05:28:13.702Z,77.14
2023-02-11T05:33:15.140Z,77.12
2023-02-11T05:38:16.864Z,77.93
2023-02-11T05:43:18.296Z,78.16
2023-02-11T05:48:19.852Z,77.42
2023-02-11T05:53:21.877Z,78.42
2023-02-11T05:58:23.315Z,78.09
2023-02-11T06:03:24.789Z,79.10
2023-02-11T06:08:26.240Z,78.84
2023-02-11T06:13:27.675Z,78.76
2023-02-11T06:18:29.678Z,79.07
2023-02-11T06:23:31.135Z,79.00
2023-02-11T06:28:33.542Z,78.50
2023-02-11T06:33:35.667Z,78.44
2023-02-11T06:38:37.111Z,78.58
2023-02-11T06:43:39.541Z,77.53
2023-02-11T06:48:43.794Z,78.05
2023-02-11T06:53:46.758Z,77.18
2023-02-11T06:58:51.702Z,77.05
2023-02-11T07:03:53.776Z,76.93
2023-02-11T07:08:56.166Z,76.98
2023-02-11T07:14:03.890Z,77.86
2023-02-11T07:19:05.375Z,78.37
2023-02-11T07:24:10.918Z,78.79
2023-02-11T07:29:12.880Z,79.00
2023-02-11T07:34:14.329Z,79.58
2023-02-11T07:39:15.809Z,79.28
2023-02-11T07:44:17.285Z,79.52
2023-02-11T07:49:18.737Z,79.25
2023-02-11T07:54:20.254Z,79.61
2023-02-11T07:59:21.743Z,79.58
2023-02-11T08:04:23.237Z,78.71
2023-02-11T08:09:25.022Z,78.02
2023-02-11T08:14:27.228Z,78.00
2023-02-11T08:19:28.574Z,77.57
2023-02-11T08:24:30.027Z,77.29
2023-02-11T08:29:31.464Z,76.66
2023-02-11T08:34:32.919Z,76.92
2023-02-11T08:39:34.404Z,76.72
2023-02-11T08:44:35.844Z,77.15
2023-02-11T08:49:37.480Z,76.91
2023-02-11T08:54:39.108Z,77.72
2023-02-11T08:59:40.562Z,76.90
2023-02-11T09:04:42.103Z,76.63
2023-02-11T09:09:43.533Z,76.72
2023-02-11T09:14:44.967Z,76.93
2023-02-11T09:19:46.412Z,77.40
2023-02-11T09:24:47.850Z,77.36
2023-02-11T09:29:49.358Z,77.55
2023-02-11T09:34:50.827Z,77.36
2023-02-11T09:39:52.258Z,77.92
2023-02-11T09:44:53.901Z,77.51
2023-02-11T09:50:13.385Z,77.50
2023-02-11T09:55:22.777Z,77.93
2023-02-11T10:00:28.262Z,77.97
2023-02-11T10:05:48.454Z,77.48
2023-02-11T10:11:02.192Z,77.20
2023-02-11T10:16:25.025Z,77.20
2023-02-11T10:21:51.510Z,77.04
2023-02-11T10:26:53.028Z,76.87
2023-02-11T10:31:57.219Z,76.29
2023-02-11T10:37:00.319Z,76.12
2023-02-11T10:48:39.270Z,76.73
2023-02-11T10:53:40.911Z,76.53
2023-02-11T10:58:53.952Z,76.95
2023-02-11T11:03:55.863Z,77.26
2023-02-11T11:08:58.109Z,77.07
2023-02-11T11:14:00.506Z,77.33
2023-02-11T11:19:08.148Z,77.60
2023-02-11T11:24:19.960Z,77.86
2023-02-11T11:29:45.954Z,77.85
2023-02-11T11:34:53.963Z,77.83
2023-02-11T11:40:22.549Z,77.80
2023-02-11T11:45:27.390Z,77.78
2023-02-11T11:50:43.378Z,78.10
2023-02-11T11:55:50.794Z,78.14
2023-02-11T12:01:05.572Z,78.25
2023-02-11T12:06:23.162Z,77.54
2023-02-11T12:11:47.994Z,78.08
2023-02-11T12:17:19.330Z,78.11
2023-02-11T12:22:58.297Z,78.13
2023-02-11T12:28:23.259Z,78.57
2023-02-11T12:33:48.079Z,78.82
2023-02-11T12:39:06.509Z,79.33
2023-02-11T12:44:20.822Z,79.67
2023-02-11T12:49:56.395Z,79.62
2023-02-11T12:55:09.124Z,79.78
2023-02-11T13:00:17.204Z,79.77
2023-02-11T13:05:33.757Z,79.65
2023-02-11T13:10:38.372Z,80.02
2023-02-11T13:15:42.836Z,80.08
2023-02-11T13:20:53.923Z,79.53
2023-02-11T13:26:12.945Z,79.94
2023-02-11T13:31:16.512Z,80.14
2023-02-11T13:36:33.316Z,79.75
2023-02-11T13:41:40.392Z,79.97
2023-02-11T13:47:04.712Z,79.45
2023-02-11T13:52:21.716Z,78.97
2023-02-11T13:57:29.551Z,80.04
2023-02-11T14:02:52.730Z,79.74
2023-02-11T14:08:28.102Z,79.66
2023-02-11T14:13:31.536Z,79.51
2023-02-11T14:18:59.434Z,79.45
2023-02-11T14:24:07.008Z,79.40
2023-02-11T14:29:44.077Z,79.50
2023-02-11T14:35:10.454Z,79.74
2023-02-11T14:40:26.763Z,79.88
2023-02-11T14:45:29.010Z,79.81
2023-02-11T14:50:45.616Z,79.58
2023-02-11T14:55:52.787Z,79.77
2023-02-11T15:00:59.046Z,79.83
2023-02-11T15:06:19.389Z,79.85
2023-02-11T15:11:23.841Z,79.65
2023-02-11T15:16:28.657Z,79.68
2023-02-11T15:21:33.386Z,80.04
2023-02-11T15:26:34.818Z,80.50
2023-02-11T15:31:36.336Z,80.14
2023-02-11T15:36:38.558Z,80.48
2023-02-11T15:41:39.986Z,80.21
2023-02-11T15:46:41.503Z,80.81
2023-02-11T15:51:46.035Z,80.74
2023-02-11T15:56:52.667Z,80.79
2023-02-11T16:01:55.433Z,81.26
2023-02-11T16:06:57.542Z,81.26
2023-02-11T16:12:07.430Z,81.41
2023-02-11T16:17:11.017Z,81.83
2023-02-11T16:22:28.804Z,82.08
2023-02-11T16:27:39.735Z,82.77
2023-02-11T16:32:41.389Z,83.46
2023-02-11T16:37:42.834Z,83.55
2023-02-11T16:42:44.296Z,83.98
2023-02-11T16:47:46.176Z,84.50
2023-02-11T16:52:48.368Z,84.90
2023-02-11T16:57:49.902Z,86.09
2023-02-11T17:02:51.428Z,86.05
2023-02-11T17:07:52.889Z,86.33
2023-02-11T17:12:54.361Z,86.12
2023-02-11T17:17:55.786Z,86.53
2023-02-11T17:22:57.677Z,86.50
2023-02-11T17:27:59.157Z,86.79
2023-02-11T17:33:00.741Z,86.64
2023-02-11T17:38:02.249Z,86.87
2023-02-11T17:43:03.965Z,86.96
2023-02-11T17:48:05.545Z,87.25
2023-02-11T17:53:07.119Z,87.57
2023-02-11T17:58:08.555Z,87.90
2023-02-11T18:03:09.983Z,88.01
2023-02-11T18:08:11.429Z,87.51
2023-02-11T18:13:13.312Z,87.93
2023-02-11T18:18:15.043Z,88.02
2023-02-11T18:23:16.464Z,88.50
2023-02-11T18:28:18.033Z,88.78
2023-02-11T18:33:19.460Z,88.88
2023-02-11T18:38:22.283Z,88.92
2023-02-11T18:43:23.778Z,89.31
2023-02-11T18:48:28.451Z,89.68
2023-02-11T18:53:29.895Z,89.56
2023-02-11T18:58:31.319Z,89.57
2023-02-11T19:03:32.775Z,89.57
2023-02-11T19:08:34.222Z,89.73
2023-02-11T19:13:35.727Z,89.54
2023-02-11T19:18:38.578Z,89.30
2023-02-11T19:23:40.070Z,89.08
2023-02-11T19:28:41.655Z,89.57
2023-02-11T19:33:43.268Z,89.46
2023-02-11T19:38:45.162Z,89.19
2023-02-11T19:43:47.789Z,89.39
2023-02-11T19:48:49.686Z,89.27
2023-02-11T19:53:51.249Z,89.38
2023-02-11T19:58:52.677Z,89.63
2023-02-11T20:03:55.509Z,90.09
2023-02-11T20:09:00.450Z,89.92
2023-02-11T20:14:02.486Z,89.66
2023-02-11T20:19:03.909Z,89.63
2023-02-11T20:24:05.403Z,89.74
2023-02-11T20:29:07.119Z,89.55
2023-02-11T20:34:09.878Z,89.87
2023-02-11T20:39:11.469Z,89.54
2023-02-11T20:44:13.392Z,89.51
2023-02-11T20:49:18.740Z,89.83
2023-02-11T20:54:21.774Z,89.51
2023-02-11T20:59:23.305Z,89.66
2023-02-11T21:04:27.415Z,89.61
2023-02-11T21:09:33.139Z,89.14
2023-02-11T21:14:34.615Z,89.41
2023-02-11T21:19:36.061Z,89.48
2023-02-11T21:24:37.507Z,89.64
2023-02-11T21:29:52.802Z,89.16
2023-02-11T21:34:55.540Z,89.49
2023-02-11T21:39:57.001Z,89.83
2023-02-11T21:44:58.442Z,89.94
2023-02-11T21:49:59.943Z,90.34
2023-02-11T21:55:01.417Z,90.24
2023-02-11T22:00:04.669Z,90.20
2023-02-11T22:05:07.104Z,90.31
2023-02-11T22:10:09.589Z,90.45
2023-02-11T22:15:11.139Z,89.95
2023-02-11T22:20:12.616Z,90.02
2023-02-11T22:25:14.061Z,90.27
2023-02-11T22:30:15.493Z,90.04
2023-02-11T22:35:17.062Z,89.88
2023-02-11T22:40:18.708Z,89.83
2023-02-11T22:45:20.140Z,90.56
2023-02-11T22:50:21.573Z,90.59
2023-02-11T22:55:23.041Z,90.22
2023-02-11T23:00:26.292Z,90.24
2023-02-11T23:05:27.744Z,89.82
2023-02-11T23:10:29.162Z,90.16
2023-02-11T23:15:30.918Z,90.23
2023-02-11T23:20:35.565Z,90.21
2023-02-11T23:25:44.732Z,90.06
2023-02-11T23:30:46.221Z,89.97
2023-02-11T23:35:47.806Z,89.98
2023-02-11T23:40:49.235Z,90.04
2023-02-11T23:45:52.077Z,90.27
2023-02-11T23:50:53.864Z,90.26
2023-02-11T23:55:55.540Z,89.62
